Accueil
METAR-TAF:

METAR-TAF

Aéroports :

Wallis, France

Aérodrome de Wallis Hihifo

latitude: 13-14S, longitude: 176-10W, altitude: 23 m

Observation

Le bulletin a été fait il y a 2 heures et 47 minutes, à 04:00 UTC
Vent 9 kt de est/sud-est, variant entre est et sud/sud-est
Température 29°C
Humidité 66%
Pression 1011 hPa
Visibilité 10 km ou plus
Nuages épars à une hauteur de 2600 ft

METAR: NLWW 240400Z 12009KT 090V150 9999 SCT026 29/22 Q1011 R88/000095 NOSIG

Heure: 18:47 (06:47 UTC)

Prévision

Le bulletin a été fait il y a 1 heure et 47 minutes, à 05:00 UTC
Prévision valable du 24 à 06 UTC au 25 à 06 UTC
Vent 10 kt de est/sud-est
Visibilité 10 km ou plus
Quelques nuages à une hauteur de 3500 ft

TAF: NLWW 240500Z 2406/2506 11010KT 9999 FEW035

Observations et prévisions météorologiques de plus de 4000 aéroports (messages METAR et TAF).

Les stations disponibles sont représentées par des disques jaunes et rouges sur la carte.

Passer la souris dessus pour voir le nom de la station.

Cliquer dessus pour voir les observations et prévisions météorologiques.

Pour changer de carte: cliquez sur les boutons verts avec une croix noire pour zoomer, sur le bouton vert avec un tiret pour effectuer un zoom arrière, ou sur les flèches vertes pour les cartes adjacentes.


METAR-TAF: